Time;durP1;ratioP1;P1;durP2;ratioP2;P2;SDS_P1;SDS_P2;PMS_P1;PMS_P2;Temp;Humidity;BMP_temperature;BMP_pressure;BME280_temperature;BME280_humidity;BME280_pressure;Samples;Min_cycle;Max_cycle;Signal;HPM_P1;HPM_P2
2022/12/12 00:01:27;;;;;;;12.20;8.93;;;;;;;;;;5075857;28;20227;-82
2022/12/12 00:03:55;;;;;;;11.35;9.07;;;;;;;;;;5075667;28;20299;-82
2022/12/12 00:06:24;;;;;;;10.18;6.93;;;;;;;;;;5075754;28;20289;-82
2022/12/12 00:08:52;;;;;;;11.20;7.38;;;;;;;;;;5075844;28;20287;-82
2022/12/12 00:11:20;;;;;;;10.68;7.85;;;;;;;;;;5075896;28;20292;-82
2022/12/12 00:13:48;;;;;;;8.93;7.28;;;;;;;;;;5075608;28;20284;-82
2022/12/12 00:16:15;;;;;;;11.10;7.22;;;;;;;;;;5077368;28;20291;-80
2022/12/12 00:18:44;;;;;;;11.40;6.72;;;;;;;;;;5084088;28;20312;-79
2022/12/12 00:21:15;;;;;;;9.18;6.47;;;;;;;;;;5081533;28;20291;-80
2022/12/12 00:23:43;;;;;;;10.02;7.25;;;;;;;;;;5076753;28;20734;-81
2022/12/12 00:26:18;;;;;;;12.30;7.38;;;;;;;;;;5075829;28;20335;-83
2022/12/12 00:28:45;;;;;;;8.90;6.50;;;;;;;;;;5076015;28;20283;-83
2022/12/12 00:31:13;;;;;;;10.98;6.13;;;;;;;;;;5074980;28;20283;-79
2022/12/12 00:33:40;;;;;;;8.43;6.15;;;;;;;;;;5075087;28;20200;-81
2022/12/12 00:36:10;;;;;;;8.10;5.75;;;;;;;;;;5074959;28;20208;-81
2022/12/12 00:38:37;;;;;;;7.05;5.60;;;;;;;;;;5074743;28;20361;-79
2022/12/12 00:41:06;;;;;;;8.82;6.43;;;;;;;;;;5074515;28;20284;-82
2022/12/12 00:43:33;;;;;;;7.65;5.65;;;;;;;;;;5075472;28;20826;-83
2022/12/12 00:46:02;;;;;;;8.18;6.35;;;;;;;;;;5074965;28;20207;-80
2022/12/12 00:48:30;;;;;;;6.70;5.20;;;;;;;;;;5074008;28;20287;-81
2022/12/12 00:50:58;;;;;;;7.13;5.00;;;;;;;;;;5074240;28;20239;-82
2022/12/12 00:53:26;;;;;;;7.68;5.95;;;;;;;;;;5074097;28;20204;-80
2022/12/12 00:55:57;;;;;;;5.85;4.57;;;;;;;;;;5074495;28;20295;-83
2022/12/12 00:58:25;;;;;;;5.55;4.05;;;;;;;;;;5074222;28;20225;-81
2022/12/12 01:00:54;;;;;;;6.13;4.47;;;;;;;;;;5074458;28;20309;-82
2022/12/12 01:03:21;;;;;;;6.68;4.82;;;;;;;;;;5073801;28;20334;-83
2022/12/12 01:05:49;;;;;;;7.60;4.45;;;;;;;;;;5074092;28;20295;-79
2022/12/12 01:08:16;;;;;;;5.80;4.10;;;;;;;;;;5073564;28;20196;-83
2022/12/12 01:10:45;;;;;;;5.13;3.30;;;;;;;;;;5073866;28;20346;-82
2022/12/12 01:13:12;;;;;;;4.28;3.55;;;;;;;;;;5074031;28;20208;-79
2022/12/12 01:15:40;;;;;;;3.55;2.97;;;;;;;;;;5073474;28;20207;-80
2022/12/12 01:18:07;;;;;;;2.90;2.60;;;;;;;;;;5073319;28;20613;-81
2022/12/12 01:20:35;;;;;;;4.25;3.70;;;;;;;;;;5073228;28;20311;-82
2022/12/12 01:23:02;;;;;;;2.75;2.53;;;;;;;;;;5073321;28;20296;-79
2022/12/12 01:25:30;;;;;;;3.42;3.13;;;;;;;;;;5073724;28;20632;-79
2022/12/12 01:27:59;;;;;;;2.95;2.65;;;;;;;;;;5073720;28;20205;-76
2022/12/12 01:30:28;;;;;;;3.03;2.72;;;;;;;;;;5073050;28;20216;-81
2022/12/12 01:32:55;;;;;;;3.30;3.00;;;;;;;;;;5073006;28;20779;-81
2022/12/12 01:35:23;;;;;;;2.92;2.45;;;;;;;;;;5073016;28;20201;-81
2022/12/12 01:37:51;;;;;;;2.72;2.53;;;;;;;;;;5073086;28;20268;-78
2022/12/12 01:40:22;;;;;;;3.00;2.65;;;;;;;;;;5073018;28;20296;-83
2022/12/12 01:42:51;;;;;;;3.17;2.60;;;;;;;;;;5073002;28;20197;-81
2022/12/12 01:46:13;;;;;;;3.92;2.72;;;;;;;;;;5072800;28;20205;-80
2022/12/12 01:48:47;;;;;;;3.22;2.42;;;;;;;;;;5073446;28;20346;-83
2022/12/12 01:51:17;;;;;;;2.42;2.22;;;;;;;;;;5067254;28;20682;-80
2022/12/12 01:53:45;;;;;;;3.85;1.98;;;;;;;;;;5057165;28;20206;-82
2022/12/12 01:56:16;;;;;;;3.53;2.85;;;;;;;;;;5056983;28;20206;-82
2022/12/12 01:58:47;;;;;;;2.97;2.67;;;;;;;;;;5056535;28;20198;-80
2022/12/12 02:01:15;;;;;;;3.20;2.30;;;;;;;;;;5056810;28;20731;-81
2022/12/12 02:03:45;;;;;;;2.70;2.25;;;;;;;;;;5056703;28;20739;-81
2022/12/12 02:06:17;;;;;;;2.47;2.28;;;;;;;;;;5055780;28;20288;-82
2022/12/12 02:08:45;;;;;;;2.50;2.30;;;;;;;;;;5056125;28;20293;-80
2022/12/12 02:11:13;;;;;;;3.22;2.58;;;;;;;;;;5056314;28;20201;-78
2022/12/12 02:13:40;;;;;;;2.30;2.10;;;;;;;;;;5055875;28;20292;-81
2022/12/12 02:16:19;;;;;;;2.50;2.30;;;;;;;;;;5055816;28;20223;-80
2022/12/12 02:18:57;;;;;;;4.50;2.67;;;;;;;;;;5055272;28;20207;-81
2022/12/12 02:21:31;;;;;;;2.35;2.15;;;;;;;;;;5067206;28;20299;-80
2022/12/12 02:24:56;;;;;;;2.55;2.35;;;;;;;;;;5075923;28;20296;-80
2022/12/12 02:27:42;;;;;;;4.00;2.72;;;;;;;;;;5075624;28;20212;-81
2022/12/12 02:30:21;;;;;;;2.30;2.08;;;;;;;;;;5075336;28;20718;-81
2022/12/12 02:33:26;;;;;;;3.85;2.60;;;;;;;;;;5074902;28;20204;-82
2022/12/12 02:36:12;;;;;;;4.75;3.30;;;;;;;;;;5013365;28;20214;-81
2022/12/12 02:38:50;;;;;;;3.13;2.17;;;;;;;;;;5070909;28;20205;-78
2022/12/12 02:41:28;;;;;;;2.40;2.20;;;;;;;;;;5075067;28;20232;-81
2022/12/12 02:44:06;;;;;;;2.85;2.10;;;;;;;;;;5075170;28;20208;-81
2022/12/12 02:46:37;;;;;;;2.70;2.50;;;;;;;;;;5075027;28;20193;-80
2022/12/12 02:49:08;;;;;;;2.80;2.30;;;;;;;;;;5074833;28;20312;-81
2022/12/12 02:51:36;;;;;;;2.05;1.95;;;;;;;;;;5074965;28;20227;-80
2022/12/12 02:54:05;;;;;;;3.58;2.42;;;;;;;;;;5075382;28;20346;-80
2022/12/12 02:56:47;;;;;;;3.40;2.53;;;;;;;;;;5075028;28;20203;-78
2022/12/12 02:59:20;;;;;;;3.15;2.28;;;;;;;;;;5074792;28;20227;-80
2022/12/12 03:02:21;;;;;;;2.50;2.25;;;;;;;;;;5078349;28;20264;-80
2022/12/12 03:08:07;;;;;;;3.15;2.42;;;;;;;;;;5076784;28;20204;-79
2022/12/12 03:10:48;;;;;;;2.90;2.22;;;;;;;;;;5076063;28;20307;-82
2022/12/12 03:13:24;;;;;;;2.08;1.90;;;;;;;;;;5075879;28;20254;-81
2022/12/12 03:15:59;;;;;;;3.13;1.90;;;;;;;;;;5075713;28;20200;-81
2022/12/12 03:18:31;;;;;;;3.15;2.33;;;;;;;;;;5075040;28;20220;-79
2022/12/12 03:21:04;;;;;;;2.15;1.95;;;;;;;;;;5075303;28;20232;-80
2022/12/12 03:23:37;;;;;;;6.22;2.80;;;;;;;;;;5075621;28;20201;-80
2022/12/12 03:26:09;;;;;;;3.83;3.08;;;;;;;;;;5073568;28;20269;-81
2022/12/12 03:28:40;;;;;;;4.32;3.28;;;;;;;;;;5075123;28;20201;-78
2022/12/12 03:31:10;;;;;;;2.50;2.30;;;;;;;;;;5075246;28;20300;-78
2022/12/12 03:33:41;;;;;;;3.17;2.30;;;;;;;;;;5075404;28;20197;-78
2022/12/12 03:36:15;;;;;;;1.98;1.88;;;;;;;;;;5075436;28;20211;-82
2022/12/12 03:38:45;;;;;;;2.17;1.98;;;;;;;;;;5074810;28;20201;-81
2022/12/12 03:41:17;;;;;;;2.90;2.65;;;;;;;;;;5074514;28;20315;-81
2022/12/12 03:43:50;;;;;;;2.42;2.05;;;;;;;;;;5074598;28;20665;-80
2022/12/12 03:46:20;;;;;;;2.00;1.90;;;;;;;;;;5074353;28;20756;-81
2022/12/12 03:48:51;;;;;;;2.53;2.33;;;;;;;;;;5082520;28;20640;-82
2022/12/12 03:51:25;;;;;;;3.28;2.97;;;;;;;;;;5083047;22;20360;-81
2022/12/12 03:53:56;;;;;;;3.55;2.35;;;;;;;;;;5055061;28;20208;-83
2022/12/12 03:56:30;;;;;;;3.38;2.55;;;;;;;;;;5057493;28;20292;-85
2022/12/12 03:59:03;;;;;;;3.70;2.92;;;;;;;;;;5058023;28;20237;-82
2022/12/12 04:01:44;;;;;;;5.05;4.00;;;;;;;;;;5058215;28;20283;-81
2022/12/12 04:04:16;;;;;;;4.13;3.42;;;;;;;;;;5057273;28;20276;-83
2022/12/12 04:06:51;;;;;;;3.53;3.00;;;;;;;;;;5057235;28;20204;-85
2022/12/12 04:15:48;;;;;;;4.47;3.22;;;;;;;;;;5057046;28;20335;-84
2022/12/12 04:18:22;;;;;;;2.28;2.08;;;;;;;;;;5056979;28;20288;-83
2022/12/12 04:23:56;;;;;;;3.95;2.90;;;;;;;;;;5056226;28;20212;-83
2022/12/12 04:26:40;;;;;;;2.55;2.35;;;;;;;;;;5056665;28;20201;-83
2022/12/12 04:29:17;;;;;;;4.60;2.95;;;;;;;;;;5055047;28;20194;-84
2022/12/12 04:31:49;;;;;;;3.67;3.10;;;;;;;;;;5055908;28;20304;-84
2022/12/12 04:34:24;;;;;;;5.03;4.20;;;;;;;;;;5056085;28;20293;-84
2022/12/12 04:36:52;;;;;;;4.75;3.63;;;;;;;;;;5056025;28;20201;-83
2022/12/12 04:39:22;;;;;;;4.78;3.78;;;;;;;;;;5055811;28;20233;-79
2022/12/12 04:41:50;;;;;;;5.70;3.60;;;;;;;;;;5055845;28;20741;-83
2022/12/12 04:44:19;;;;;;;4.18;3.78;;;;;;;;;;5055818;28;20225;-81
2022/12/12 04:46:50;;;;;;;4.18;3.17;;;;;;;;;;5055918;28;20216;-84
2022/12/12 04:49:20;;;;;;;6.63;4.57;;;;;;;;;;5054345;28;20693;-84
2022/12/12 04:51:50;;;;;;;4.88;3.15;;;;;;;;;;5054400;28;20239;-83
2022/12/12 04:54:23;;;;;;;4.13;3.50;;;;;;;;;;5054606;28;20305;-82
2022/12/12 04:56:54;;;;;;;4.20;3.25;;;;;;;;;;5055032;28;20233;-82
2022/12/12 04:59:22;;;;;;;5.53;3.38;;;;;;;;;;5054583;28;20852;-84
2022/12/12 05:01:55;;;;;;;4.03;3.13;;;;;;;;;;5054108;28;20229;-83
2022/12/12 05:04:28;;;;;;;3.83;3.10;;;;;;;;;;5054020;28;20697;-83
2022/12/12 05:07:00;;;;;;;2.88;2.55;;;;;;;;;;5054617;28;20288;-82
2022/12/12 05:09:29;;;;;;;3.10;2.72;;;;;;;;;;5054210;28;20724;-83
2022/12/12 05:11:57;;;;;;;3.20;2.63;;;;;;;;;;5053276;28;20280;-84
2022/12/12 05:14:24;;;;;;;4.03;2.80;;;;;;;;;;5053683;28;20201;-80
2022/12/12 05:16:54;;;;;;;3.55;3.10;;;;;;;;;;5053819;28;20685;-83
2022/12/12 05:19:22;;;;;;;3.75;3.40;;;;;;;;;;5054007;28;20202;-84
2022/12/12 05:21:49;;;;;;;3.05;2.70;;;;;;;;;;5053689;28;20765;-83
2022/12/12 05:24:16;;;;;;;4.93;3.17;;;;;;;;;;5052466;28;20637;-81
2022/12/12 05:26:46;;;;;;;3.83;2.80;;;;;;;;;;5053100;28;20297;-82
2022/12/12 05:29:13;;;;;;;3.08;2.58;;;;;;;;;;5053731;28;20298;-82
2022/12/12 05:31:41;;;;;;;2.70;2.42;;;;;;;;;;5052779;28;20720;-81
2022/12/12 05:34:09;;;;;;;5.28;3.38;;;;;;;;;;5053454;28;20245;-81
2022/12/12 05:36:36;;;;;;;2.90;2.60;;;;;;;;;;5053710;28;20205;-83
2022/12/12 05:39:04;;;;;;;3.83;3.45;;;;;;;;;;5053242;28;20287;-81
2022/12/12 05:41:31;;;;;;;3.25;2.88;;;;;;;;;;5056314;28;20288;-84
2022/12/12 05:44:00;;;;;;;2.65;2.42;;;;;;;;;;5067040;28;20357;-85
2022/12/12 05:46:28;;;;;;;2.83;2.53;;;;;;;;;;5067608;28;20224;-85
2022/12/12 05:48:55;;;;;;;2.97;2.53;;;;;;;;;;5068013;28;20202;-84
2022/12/12 05:51:23;;;;;;;4.80;3.30;;;;;;;;;;5068558;28;20233;-85
2022/12/12 05:53:50;;;;;;;2.58;2.38;;;;;;;;;;5068102;28;20204;-84
2022/12/12 05:56:18;;;;;;;5.53;2.78;;;;;;;;;;5068318;28;20225;-83
2022/12/12 05:58:46;;;;;;;3.13;2.83;;;;;;;;;;5068061;28;20209;-85
2022/12/12 06:01:14;;;;;;;2.35;2.15;;;;;;;;;;5068976;28;20250;-84
2022/12/12 06:03:42;;;;;;;2.10;1.90;;;;;;;;;;5067618;28;20335;-85
2022/12/12 06:06:09;;;;;;;2.65;2.45;;;;;;;;;;5068560;28;20209;-82
2022/12/12 06:08:37;;;;;;;1.70;1.60;;;;;;;;;;5069019;28;20225;-84
2022/12/12 06:11:06;;;;;;;1.98;1.83;;;;;;;;;;5067076;28;20225;-86
2022/12/12 06:13:33;;;;;;;1.70;1.60;;;;;;;;;;5062083;28;20202;-83
2022/12/12 06:16:07;;;;;;;1.90;1.80;;;;;;;;;;5057937;28;20202;-83
2022/12/12 06:18:36;;;;;;;1.50;1.40;;;;;;;;;;5059188;28;20209;-82
2022/12/12 06:21:06;;;;;;;1.60;1.50;;;;;;;;;;5054516;28;20225;-84
2022/12/12 06:23:37;;;;;;;2.13;1.92;;;;;;;;;;5052974;28;20206;-82
2022/12/12 06:26:05;;;;;;;1.90;1.80;;;;;;;;;;5046157;28;20186;-83
2022/12/12 06:28:32;;;;;;;2.78;2.30;;;;;;;;;;5055122;28;20202;-85
2022/12/12 06:31:00;;;;;;;3.20;2.90;;;;;;;;;;5056559;28;20718;-83
2022/12/12 06:33:28;;;;;;;4.68;3.55;;;;;;;;;;5058308;28;20229;-87
2022/12/12 06:36:01;;;;;;;2.90;2.22;;;;;;;;;;5060698;28;20204;-85
2022/12/12 06:38:29;;;;;;;3.75;2.95;;;;;;;;;;5060708;28;20375;-85
2022/12/12 06:40:56;;;;;;;3.15;2.85;;;;;;;;;;5058296;28;20304;-85
2022/12/12 06:43:24;;;;;;;2.97;2.78;;;;;;;;;;5057408;28;20222;-85
2022/12/12 06:45:52;;;;;;;2.50;2.30;;;;;;;;;;5058547;28;20212;-86
2022/12/12 06:48:19;;;;;;;3.22;2.47;;;;;;;;;;5059457;28;20312;-85
2022/12/12 06:50:47;;;;;;;4.25;3.80;;;;;;;;;;5058927;28;20806;-83
2022/12/12 06:53:16;;;;;;;3.40;2.67;;;;;;;;;;5057988;28;20204;-84
2022/12/12 06:55:44;;;;;;;3.00;2.67;;;;;;;;;;5060081;28;20292;-83
2022/12/12 06:58:11;;;;;;;2.55;2.35;;;;;;;;;;5061865;28;20293;-82
2022/12/12 07:00:40;;;;;;;2.80;2.38;;;;;;;;;;5060252;28;20318;-84
2022/12/12 07:03:07;;;;;;;2.22;2.03;;;;;;;;;;5065496;28;20221;-83
2022/12/12 07:05:35;;;;;;;2.38;2.17;;;;;;;;;;5067494;28;20225;-85
2022/12/12 07:08:03;;;;;;;4.88;3.70;;;;;;;;;;5064884;28;20653;-84
2022/12/12 07:10:34;;;;;;;8.07;6.10;;;;;;;;;;5062047;28;20210;-83
2022/12/12 07:13:02;;;;;;;4.18;3.78;;;;;;;;;;5062216;28;20516;-84
2022/12/12 07:15:30;;;;;;;5.05;3.50;;;;;;;;;;5063311;28;20300;-83
2022/12/12 07:17:57;;;;;;;4.57;3.13;;;;;;;;;;5065929;28;20205;-81
2022/12/12 07:20:25;;;;;;;3.15;2.85;;;;;;;;;;5065814;28;20256;-84
2022/12/12 07:22:52;;;;;;;9.32;6.35;;;;;;;;;;5062880;28;20308;-84
2022/12/12 07:25:20;;;;;;;12.48;8.35;;;;;;;;;;5067524;28;20235;-83
2022/12/12 07:27:49;;;;;;;3.92;3.53;;;;;;;;;;5066938;28;20224;-84
2022/12/12 07:30:17;;;;;;;4.15;3.00;;;;;;;;;;5066348;28;20330;-85
2022/12/12 07:32:44;;;;;;;2.38;2.17;;;;;;;;;;5066396;28;20285;-88
2022/12/12 07:35:12;;;;;;;2.78;2.38;;;;;;;;;;5067167;28;20214;-84
2022/12/12 07:37:39;;;;;;;2.67;2.47;;;;;;;;;;5064629;28;20237;-84
2022/12/12 07:40:08;;;;;;;2.17;1.65;;;;;;;;;;5065816;28;20241;-85
2022/12/12 07:42:36;;;;;;;2.33;2.13;;;;;;;;;;5064537;28;20308;-85
2022/12/12 07:45:06;;;;;;;2.50;2.10;;;;;;;;;;5065255;28;20269;-85
2022/12/12 07:47:34;;;;;;;2.55;2.35;;;;;;;;;;5068262;28;20649;-85
2022/12/12 07:50:01;;;;;;;2.60;2.40;;;;;;;;;;5069326;28;20245;-86
2022/12/12 07:52:29;;;;;;;1.60;1.50;;;;;;;;;;5071249;28;20225;-86
2022/12/12 07:55:01;;;;;;;1.67;1.58;;;;;;;;;;5069429;28;20300;-89
2022/12/12 07:57:29;;;;;;;1.90;1.80;;;;;;;;;;5073045;28;20216;-86
2022/12/12 07:59:57;;;;;;;2.22;2.03;;;;;;;;;;5062284;28;20264;-86
2022/12/12 08:02:26;;;;;;;2.53;2.33;;;;;;;;;;5071195;28;20221;-88
2022/12/12 08:04:53;;;;;;;2.80;1.88;;;;;;;;;;5069645;28;20227;-87
2022/12/12 08:07:21;;;;;;;2.22;2.03;;;;;;;;;;5071066;28;20297;-86
2022/12/12 08:09:49;;;;;;;2.20;2.00;;;;;;;;;;5070873;28;20209;-85
2022/12/12 08:12:16;;;;;;;1.42;1.33;;;;;;;;;;5071456;28;20665;-85
2022/12/12 08:14:44;;;;;;;1.40;1.33;;;;;;;;;;5070197;28;20205;-86
2022/12/12 08:17:11;;;;;;;2.65;2.13;;;;;;;;;;5068178;28;20221;-89
2022/12/12 08:19:40;;;;;;;1.73;1.63;;;;;;;;;;5063469;28;20197;-86
2022/12/12 08:22:09;;;;;;;2.05;1.85;;;;;;;;;;5063843;28;20293;-86
2022/12/12 08:24:36;;;;;;;2.28;2.08;;;;;;;;;;5064831;28;20248;-87
2022/12/12 08:27:04;;;;;;;3.10;2.80;;;;;;;;;;5064564;28;20655;-85
2022/12/12 08:29:32;;;;;;;1.67;1.58;;;;;;;;;;5063989;28;20213;-87
2022/12/12 08:32:00;;;;;;;1.58;1.48;;;;;;;;;;5066758;28;20232;-87
2022/12/12 08:34:27;;;;;;;2.38;2.10;;;;;;;;;;5066851;28;20647;-86
2022/12/12 08:36:56;;;;;;;2.85;2.65;;;;;;;;;;5066620;28;20225;-89
2022/12/12 08:39:24;;;;;;;3.22;2.92;;;;;;;;;;5064350;28;20657;-86
2022/12/12 08:41:52;;;;;;;3.30;3.00;;;;;;;;;;5065257;28;20221;-89
2022/12/12 08:44:21;;;;;;;5.03;3.47;;;;;;;;;;5064338;28;20221;-88
2022/12/12 08:46:49;;;;;;;4.20;3.33;;;;;;;;;;5064114;28;20691;-88
2022/12/12 08:49:16;;;;;;;5.75;4.00;;;;;;;;;;5063860;28;20201;-87
2022/12/12 08:51:44;;;;;;;4.97;4.50;;;;;;;;;;5064743;28;20233;-89
2022/12/12 08:54:13;;;;;;;5.40;4.88;;;;;;;;;;5063015;28;20259;-87
2022/12/12 08:56:41;;;;;;;5.93;5.20;;;;;;;;;;5061413;28;20236;-86
2022/12/12 08:59:09;;;;;;;6.82;4.95;;;;;;;;;;5060552;28;20265;-85
2022/12/12 09:01:36;;;;;;;7.03;5.55;;;;;;;;;;5059332;28;20226;-86
2022/12/12 09:04:04;;;;;;;6.47;5.75;;;;;;;;;;5058563;28;20372;-86
2022/12/12 09:06:32;;;;;;;7.03;5.55;;;;;;;;;;5058457;28;20228;-86
2022/12/12 09:08:59;;;;;;;7.25;5.80;;;;;;;;;;5059594;28;20284;-87
2022/12/12 09:11:29;;;;;;;11.68;8.43;;;;;;;;;;5060638;28;20289;-87
2022/12/12 09:13:57;;;;;;;12.75;8.38;;;;;;;;;;5063312;28;20650;-89
2022/12/12 09:16:26;;;;;;;7.32;6.57;;;;;;;;;;5063222;28;20589;-88
2022/12/12 09:18:54;;;;;;;9.35;7.43;;;;;;;;;;5061998;28;20209;-89
2022/12/12 09:21:22;;;;;;;9.02;7.18;;;;;;;;;;5061683;28;20749;-88
2022/12/12 09:23:49;;;;;;;8.38;6.20;;;;;;;;;;5060828;28;20311;-87
2022/12/12 09:26:18;;;;;;;6.88;5.97;;;;;;;;;;5061000;28;20218;-88
2022/12/12 09:28:47;;;;;;;8.30;5.75;;;;;;;;;;5059942;28;20197;-87
2022/12/12 09:31:15;;;;;;;9.05;6.85;;;;;;;;;;5061244;28;20756;-88
2022/12/12 09:33:42;;;;;;;7.07;5.80;;;;;;;;;;5061158;28;20407;-86
2022/12/12 09:36:12;;;;;;;7.18;5.80;;;;;;;;;;5060878;28;20265;-86
2022/12/12 09:38:40;;;;;;;9.32;7.28;;;;;;;;;;5059880;28;20656;-85
2022/12/12 09:41:14;;;;;;;11.68;7.93;;;;;;;;;;5060425;28;20229;-86
2022/12/12 09:43:52;;;;;;;7.93;6.05;;;;;;;;;;5059856;28;20225;-87
2022/12/12 09:46:36;;;;;;;9.95;7.53;;;;;;;;;;5060097;28;20571;-85
2022/12/12 09:49:14;;;;;;;10.18;8.05;;;;;;;;;;5057204;28;20213;-85
2022/12/12 09:51:43;;;;;;;9.95;7.50;;;;;;;;;;5087960;22;20626;-86
2022/12/12 09:54:15;;;;;;;10.27;7.38;;;;;;;;;;5080337;28;20717;-85
2022/12/12 09:56:52;;;;;;;11.27;8.02;;;;;;;;;;5084121;28;20208;-85
2022/12/12 09:59:30;;;;;;;7.72;6.55;;;;;;;;;;5084097;28;20200;-85
2022/12/12 10:02:05;;;;;;;9.57;7.38;;;;;;;;;;5083930;28;20185;-86
2022/12/12 10:04:40;;;;;;;9.32;7.38;;;;;;;;;;5086402;22;20277;-89
2022/12/12 10:07:14;;;;;;;9.52;8.02;;;;;;;;;;5071947;28;20212;-89
2022/12/12 10:09:56;;;;;;;14.52;10.00;;;;;;;;;;5075765;28;20746;-89
2022/12/12 10:12:24;;;;;;;10.73;8.32;;;;;;;;;;5057389;28;20206;-90
2022/12/12 10:14:56;;;;;;;9.32;7.28;;;;;;;;;;5058062;28;20261;-89
2022/12/12 10:17:29;;;;;;;12.50;8.98;;;;;;;;;;5057929;28;20214;-89
2022/12/12 10:20:03;;;;;;;10.32;7.32;;;;;;;;;;5057431;28;20189;-89
2022/12/12 10:22:38;;;;;;;9.75;6.95;;;;;;;;;;5057517;28;20206;-89
2022/12/12 10:25:19;;;;;;;7.55;6.82;;;;;;;;;;5046182;28;20224;-89
2022/12/12 10:27:47;;;;;;;6.10;5.50;;;;;;;;;;5040811;28;20207;-90
2022/12/12 10:30:20;;;;;;;6.80;6.07;;;;;;;;;;5038862;28;20214;-89
2022/12/12 10:33:06;;;;;;;7.15;6.45;;;;;;;;;;5038216;28;20264;-89
2022/12/12 10:35:43;;;;;;;8.20;6.78;;;;;;;;;;5038137;28;20627;-89
2022/12/12 10:38:27;;;;;;;8.35;6.65;;;;;;;;;;5037600;28;20208;-89
2022/12/12 10:41:00;;;;;;;6.90;6.20;;;;;;;;;;5039243;28;20226;-88
2022/12/12 10:44:24;;;;;;;8.68;5.40;;;;;;;;;;5036498;28;20814;-89
2022/12/12 10:47:04;;;;;;;6.75;5.82;;;;;;;;;;5054080;28;20692;-88
2022/12/12 10:49:32;;;;;;;6.55;5.88;;;;;;;;;;5056047;28;20206;-90
2022/12/12 10:52:06;;;;;;;8.60;7.70;;;;;;;;;;5057342;28;20222;-87
2022/12/12 10:54:42;;;;;;;9.02;8.13;;;;;;;;;;5059061;28;20640;-88
2022/12/12 10:57:13;;;;;;;10.32;8.18;;;;;;;;;;5055615;28;20201;-87
2022/12/12 10:59:44;;;;;;;10.20;9.13;;;;;;;;;;5055459;28;20178;-88
2022/12/12 11:02:31;;;;;;;12.07;8.07;;;;;;;;;;5055337;28;20648;-90
2022/12/12 11:05:08;;;;;;;8.68;7.38;;;;;;;;;;5054274;28;20249;-89
2022/12/12 11:07:39;;;;;;;8.10;7.13;;;;;;;;;;5055874;28;20178;-89
2022/12/12 11:10:24;;;;;;;11.05;7.65;;;;;;;;;;5055395;28;20291;-87
2022/12/12 11:13:00;;;;;;;12.07;8.80;;;;;;;;;;5055570;28;20208;-88
2022/12/12 11:15:41;;;;;;;12.32;9.20;;;;;;;;;;5055463;28;20186;-88
2022/12/12 11:18:16;;;;;;;9.95;8.35;;;;;;;;;;5054821;28;20231;-88
2022/12/12 11:20:48;;;;;;;12.18;10.13;;;;;;;;;;5054275;28;20313;-87
2022/12/12 11:23:21;;;;;;;10.55;8.50;;;;;;;;;;5054582;28;20292;-88
2022/12/12 11:25:55;;;;;;;14.18;10.85;;;;;;;;;;5055765;28;20296;-87
2022/12/12 11:28:25;;;;;;;10.45;8.57;;;;;;;;;;5054844;28;20284;-88
2022/12/12 11:30:54;;;;;;;10.98;8.15;;;;;;;;;;5054286;28;20651;-87
2022/12/12 11:33:30;;;;;;;19.75;11.30;;;;;;;;;;5055061;28;20205;-88
2022/12/12 11:35:58;;;;;;;12.35;9.45;;;;;;;;;;5054827;28;20204;-88
2022/12/12 11:38:28;;;;;;;13.07;9.68;;;;;;;;;;5054517;28;20224;-88
2022/12/12 11:41:01;;;;;;;15.40;10.38;;;;;;;;;;5055019;28;20773;-89
2022/12/12 11:43:31;;;;;;;17.70;13.07;;;;;;;;;;5055435;28;20205;-89
2022/12/12 11:46:02;;;;;;;18.92;13.00;;;;;;;;;;5059197;28;20828;-88
2022/12/12 11:48:43;;;;;;;14.95;10.98;;;;;;;;;;5060468;28;20635;-89
2022/12/12 11:51:11;;;;;;;10.95;7.88;;;;;;;;;;5060448;28;20697;-89
2022/12/12 11:53:44;;;;;;;12.60;10.15;;;;;;;;;;5056829;28;20232;-88
2022/12/12 11:56:24;;;;;;;16.85;12.65;;;;;;;;;;5057982;28;20653;-88
2022/12/12 11:58:59;;;;;;;14.40;10.13;;;;;;;;;;5054410;28;20202;-88
2022/12/12 12:01:37;;;;;;;18.08;13.82;;;;;;;;;;5054474;28;20224;-88
2022/12/12 12:04:19;;;;;;;19.17;13.88;;;;;;;;;;5053769;28;20295;-88
2022/12/12 12:07:05;;;;;;;16.70;11.70;;;;;;;;;;5054369;28;20284;-87
2022/12/12 12:09:41;;;;;;;15.93;12.35;;;;;;;;;;5053733;28;20292;-86
2022/12/12 12:12:15;;;;;;;18.98;13.50;;;;;;;;;;5054054;28;20223;-85
2022/12/12 12:15:24;;;;;;;19.17;13.88;;;;;;;;;;5036057;28;20206;-89
2022/12/12 12:18:21;;;;;;;17.77;11.95;;;;;;;;;;4994125;28;20199;-87
2022/12/12 12:21:12;;;;;;;19.83;12.98;;;;;;;;;;5060512;28;20225;-87
2022/12/12 12:23:51;;;;;;;17.75;11.63;;;;;;;;;;5079371;28;20196;-87
2022/12/12 12:26:28;;;;;;;18.65;14.25;;;;;;;;;;5079622;28;20240;-85
2022/12/12 12:29:28;;;;;;;17.88;12.82;;;;;;;;;;5078937;28;20235;-84
2022/12/12 12:32:07;;;;;;;17.00;12.75;;;;;;;;;;5078499;28;20240;-84
2022/12/12 12:34:43;;;;;;;18.40;12.77;;;;;;;;;;5070979;28;20197;-87
2022/12/12 12:37:24;;;;;;;17.63;12.75;;;;;;;;;;5063396;28;20213;-87
2022/12/12 12:40:07;;;;;;;16.77;11.65;;;;;;;;;;5041182;28;20276;-88
2022/12/12 12:43:14;;;;;;;18.92;13.80;;;;;;;;;;5035287;28;20205;-87
2022/12/12 12:45:48;;;;;;;14.57;11.57;;;;;;;;;;5042802;28;20227;-88
2022/12/12 12:48:20;;;;;;;15.63;12.98;;;;;;;;;;5054070;28;20243;-87
2022/12/12 12:50:51;;;;;;;11.82;9.52;;;;;;;;;;5054230;28;20298;-87
2022/12/12 12:53:29;;;;;;;11.00;9.00;;;;;;;;;;5054171;28;20288;-87
2022/12/12 12:56:01;;;;;;;16.42;11.77;;;;;;;;;;5053678;28;20204;-87
2022/12/12 12:58:31;;;;;;;15.02;11.00;;;;;;;;;;5053987;28;20863;-87
2022/12/12 13:01:03;;;;;;;15.20;11.32;;;;;;;;;;5054119;28;20304;-87
2022/12/12 13:03:38;;;;;;;14.57;11.30;;;;;;;;;;5052654;28;20221;-87
2022/12/12 13:06:11;;;;;;;13.52;10.65;;;;;;;;;;5052587;28;20339;-87
2022/12/12 13:08:50;;;;;;;10.50;7.85;;;;;;;;;;5052756;28;20725;-87
2022/12/12 13:11:23;;;;;;;12.70;9.25;;;;;;;;;;5052729;28;20221;-87
2022/12/12 13:13:52;;;;;;;16.77;12.07;;;;;;;;;;5052675;28;20579;-85
2022/12/12 13:16:22;;;;;;;14.43;10.82;;;;;;;;;;5052659;28;20735;-85
2022/12/12 13:19:00;;;;;;;14.70;11.20;;;;;;;;;;5052672;28;20686;-87
2022/12/12 13:21:33;;;;;;;11.82;9.23;;;;;;;;;;5066174;28;20233;-86
2022/12/12 13:24:06;;;;;;;11.07;9.50;;;;;;;;;;5077494;28;20191;-85
2022/12/12 13:26:43;;;;;;;11.95;9.43;;;;;;;;;;5077811;28;20213;-85
2022/12/12 13:29:28;;;;;;;12.57;9.40;;;;;;;;;;5077324;28;20185;-84
2022/12/12 13:32:32;;;;;;;13.48;11.07;;;;;;;;;;5076859;28;20217;-84
2022/12/12 13:35:06;;;;;;;10.13;7.97;;;;;;;;;;5074665;28;20204;-86
2022/12/12 13:37:42;;;;;;;11.18;7.70;;;;;;;;;;5073841;28;20224;-85
2022/12/12 13:40:27;;;;;;;12.88;10.00;;;;;;;;;;5075476;28;20237;-85
2022/12/12 13:42:57;;;;;;;9.07;7.60;;;;;;;;;;5077045;28;20240;-83
2022/12/12 13:45:42;;;;;;;8.63;7.22;;;;;;;;;;5072998;28;20194;-83
2022/12/12 13:48:45;;;;;;;8.25;6.70;;;;;;;;;;5073834;28;20188;-86
2022/12/12 13:51:33;;;;;;;8.82;7.07;;;;;;;;;;5067805;28;20261;-85
2022/12/12 13:54:52;;;;;;;8.25;7.10;;;;;;;;;;5061288;28;20209;-85
2022/12/12 13:57:31;;;;;;;11.75;8.25;;;;;;;;;;5059453;28;20225;-85
2022/12/12 14:00:29;;;;;;;10.95;9.13;;;;;;;;;;5059219;28;20644;-85
2022/12/12 14:03:01;;;;;;;15.43;10.65;;;;;;;;;;5058899;28;20198;-85
2022/12/12 14:05:32;;;;;;;11.10;8.77;;;;;;;;;;5057966;28;20202;-85
2022/12/12 14:08:05;;;;;;;13.40;10.23;;;;;;;;;;5058471;28;20272;-85
2022/12/12 14:10:37;;;;;;;12.40;9.07;;;;;;;;;;5058051;28;20259;-85
2022/12/12 14:13:44;;;;;;;11.50;8.68;;;;;;;;;;5058311;28;20208;-85
2022/12/12 14:16:26;;;;;;;8.00;7.20;;;;;;;;;;5056004;28;20257;-84
2022/12/12 14:19:35;;;;;;;8.82;7.50;;;;;;;;;;5056955;28;20261;-85
2022/12/12 14:22:03;;;;;;;13.85;10.30;;;;;;;;;;5052870;28;20260;-85
2022/12/12 14:24:58;;;;;;;13.43;10.13;;;;;;;;;;5056239;28;20307;-84
2022/12/12 14:28:25;;;;;;;13.73;9.13;;;;;;;;;;5055685;28;20233;-84
2022/12/12 14:31:16;;;;;;;12.00;9.02;;;;;;;;;;4994430;28;20703;-83
2022/12/12 14:34:00;;;;;;;7.28;6.57;;;;;;;;;;5055624;28;20258;-84
2022/12/12 14:36:51;;;;;;;8.50;7.35;;;;;;;;;;5055832;28;20280;-83
2022/12/12 14:39:48;;;;;;;11.00;8.27;;;;;;;;;;5055490;28;20194;-84
2022/12/12 14:42:25;;;;;;;15.15;11.27;;;;;;;;;;5053176;28;20206;-83
2022/12/12 14:44:53;;;;;;;11.05;9.02;;;;;;;;;;5056023;28;20221;-84
2022/12/12 14:47:21;;;;;;;9.75;8.07;;;;;;;;;;5055676;28;20221;-84
2022/12/12 14:49:49;;;;;;;10.52;7.78;;;;;;;;;;5055580;28;20732;-84
2022/12/12 14:52:21;;;;;;;7.68;6.30;;;;;;;;;;5054954;28;20202;-84
2022/12/12 14:54:49;;;;;;;6.05;5.45;;;;;;;;;;5051844;28;20564;-85
2022/12/12 14:57:22;;;;;;;7.75;6.78;;;;;;;;;;5059159;28;20284;-85
2022/12/12 14:59:50;;;;;;;8.48;6.53;;;;;;;;;;5059555;28;20293;-85
2022/12/12 15:02:23;;;;;;;8.27;6.15;;;;;;;;;;5058799;28;20202;-85
2022/12/12 15:04:53;;;;;;;6.30;5.63;;;;;;;;;;5058842;28;20292;-83
2022/12/12 15:07:25;;;;;;;7.30;6.18;;;;;;;;;;5059473;28;20308;-84
2022/12/12 15:09:53;;;;;;;6.28;5.18;;;;;;;;;;5058192;28;20204;-84
2022/12/12 15:12:22;;;;;;;7.60;5.18;;;;;;;;;;5058634;28;20206;-83
2022/12/12 15:14:56;;;;;;;8.98;7.45;;;;;;;;;;5058061;28;20296;-83
2022/12/12 15:17:29;;;;;;;12.02;9.73;;;;;;;;;;5057755;28;20194;-84
2022/12/12 15:19:58;;;;;;;13.93;10.25;;;;;;;;;;5057883;28;20284;-84
2022/12/12 15:22:28;;;;;;;15.02;10.77;;;;;;;;;;5057006;28;20202;-83
2022/12/12 15:24:57;;;;;;;10.95;8.60;;;;;;;;;;5057508;28;20216;-84
2022/12/12 15:27:29;;;;;;;14.95;11.27;;;;;;;;;;5057488;28;20398;-84